Time;durP1;ratioP1;P1;durP2;ratioP2;P2;SDS_P1;SDS_P2;PMS_P1;PMS_P2;Temp;Humidity;BMP_temperature;BMP_pressure;BME280_temperature;BME280_humidity;BME280_pressure;Samples;Min_cycle;Max_cycle;Signal;HPM_P1;HPM_P2
2021/04/21 00:01:39;;;;;;;22.42;12.75;;;9.20;78.50;;;8.23;63.77;98283.06;5130817;28;20449;-80
2021/04/21 00:04:07;;;;;;;19.15;12.80;;;9.20;79.20;;;8.36;63.33;98290.09;5130768;28;20411;-80
2021/04/21 00:06:35;;;;;;;19.85;12.55;;;9.40;78.10;;;8.23;63.83;98287.53;5129965;28;20405;-79
2021/04/21 00:09:03;;;;;;;17.98;12.18;;;9.30;78.70;;;8.17;64.10;98283.91;5130171;28;20396;-80
2021/04/21 00:11:31;;;;;;;19.63;12.98;;;9.30;78.30;;;8.04;64.28;98287.44;5130330;28;20408;-80
2021/04/21 00:13:57;;;;;;;20.15;12.57;;;9.20;78.40;;;8.04;64.49;98289.28;5132115;28;20475;-80
2021/04/21 00:16:24;;;;;;;19.25;12.73;;;9.10;78.80;;;7.98;64.98;98284.84;5133303;28;20454;-80
2021/04/21 00:18:51;;;;;;;18.88;13.05;;;9.10;79.30;;;7.92;65.11;98275.94;5133709;28;20475;-79
2021/04/21 00:21:18;;;;;;;19.92;12.73;;;9.00;79.40;;;8.00;64.65;98280.97;5133899;28;20408;-79
2021/04/21 00:23:47;;;;;;;18.35;13.00;;;9.00;79.30;;;7.81;65.16;98281.91;5135616;28;20411;-79
2021/04/21 00:26:18;;;;;;;19.13;13.15;;;9.00;79.40;;;7.80;65.35;98277.66;5136782;28;20404;-78
2021/04/21 00:28:45;;;;;;;19.45;13.15;;;8.90;79.90;;;7.83;65.63;98271.13;5137010;28;20935;-78
2021/04/21 00:31:13;;;;;;;18.20;12.57;;;8.90;80.20;;;7.81;65.63;98271.38;5136729;28;20476;-79
2021/04/21 00:33:43;;;;;;;18.05;13.27;;;8.80;80.00;;;7.87;65.75;98269.72;5136298;28;20413;-80
2021/04/21 00:36:13;;;;;;;20.80;13.63;;;8.90;80.20;;;7.90;65.33;98274.53;5136495;28;20430;-79
2021/04/21 00:38:40;;;;;;;21.53;13.43;;;9.00;80.20;;;7.91;65.81;98271.69;5153240;27;20421;-79
2021/04/21 00:41:19;;;;;;;19.98;13.18;;;9.00;80.20;;;7.98;65.35;98267.19;5135485;28;20404;-79
2021/04/21 00:43:53;;;;;;;22.45;14.43;;;9.00;80.10;;;7.90;66.05;98270.06;5122125;28;20408;-80
2021/04/21 00:46:23;;;;;;;20.37;13.17;;;9.00;80.50;;;7.88;65.94;98260.78;5123647;28;20396;-80
2021/04/21 00:49:04;;;;;;;18.95;13.85;;;9.00;80.70;;;7.86;66.34;98262.81;5122731;28;20420;-80
2021/04/21 00:51:41;;;;;;;20.85;13.15;;;8.90;80.90;;;7.75;66.61;98264.28;5125370;28;20400;-79
2021/04/21 00:54:14;;;;;;;20.30;13.57;;;8.90;81.20;;;7.75;66.89;98254.56;5129670;28;20396;-79
2021/04/21 00:56:58;;;;;;;24.33;13.40;;;8.80;81.60;;;7.67;67.14;98265.34;5132462;28;20420;-79
2021/04/21 00:59:37;;;;;;;19.63;13.68;;;8.70;82.60;;;7.74;66.77;98262.69;5132261;28;20402;-79
2021/04/21 01:02:09;;;;;;;28.35;14.77;;;8.80;82.00;;;7.66;67.12;98261.09;5133287;28;20392;-79
2021/04/21 01:04:40;;;;;;;19.73;14.00;;;8.70;82.60;;;7.75;66.61;98256.38;5130742;28;20408;-79
2021/04/21 01:07:08;;;;;;;20.00;13.95;;;8.80;81.60;;;7.69;66.64;98251.97;5131971;28;20418;-78
2021/04/21 01:09:39;;;;;;;26.00;14.60;;;8.80;81.40;;;7.63;66.99;98250.97;5133871;28;20404;-79
2021/04/21 01:12:12;;;;;;;21.27;13.88;;;8.70;81.70;;;7.49;67.07;98254.69;5132221;28;20499;-79
2021/04/21 01:14:43;;;;;;;26.10;14.70;;;8.60;81.80;;;7.41;67.93;98243.59;5122582;28;20793;-79
2021/04/21 01:17:14;;;;;;;24.23;14.57;;;8.50;82.50;;;7.30;68.32;98242.41;5124400;28;20396;-79
2021/04/21 01:20:09;;;;;;;20.60;14.80;;;8.40;83.10;;;7.27;68.16;98237.56;5118340;28;20608;-79
2021/04/21 01:22:59;;;;;;;21.30;14.73;;;8.40;83.10;;;7.37;67.42;98244.00;5120605;28;20430;-79
2021/04/21 01:25:38;;;;;;;21.67;15.30;;;8.40;82.60;;;7.41;67.19;98240.97;5126213;28;20492;-79
2021/04/21 01:28:09;;;;;;;21.40;15.07;;;8.50;82.30;;;7.38;67.37;98234.28;5126094;28;20392;-80
2021/04/21 01:30:40;;;;;;;22.67;14.52;;;8.50;82.30;;;7.33;67.19;98242.00;5125540;28;20509;-80
2021/04/21 01:33:13;;;;;;;21.75;14.02;;;8.40;82.10;;;7.36;67.33;98237.13;5125478;28;20396;-79
2021/04/21 01:35:48;;;;;;;22.00;15.05;;;8.40;82.30;;;7.37;66.83;98230.03;5125735;28;20527;-79
2021/04/21 01:38:18;;;;;;;24.75;14.27;;;8.50;81.90;;;7.34;67.00;98233.91;5142520;27;20740;-80
2021/04/21 01:40:47;;;;;;;23.63;15.07;;;8.50;81.80;;;7.29;67.18;98240.81;5124739;28;20853;-80
2021/04/21 01:43:20;;;;;;;21.83;14.63;;;8.40;82.10;;;7.21;67.28;98236.59;5124321;28;20407;-79
2021/04/21 01:45:51;;;;;;;23.85;15.00;;;8.30;82.30;;;7.21;67.52;98239.22;5123852;28;20446;-79
2021/04/21 01:48:23;;;;;;;22.05;14.90;;;8.30;82.50;;;7.14;67.92;98243.69;5125299;28;20408;-79
2021/04/21 01:50:50;;;;;;;22.60;15.25;;;8.30;82.70;;;7.04;68.58;98245.16;5124531;28;20416;-79
2021/04/21 01:53:29;;;;;;;23.48;14.90;;;8.20;83.30;;;7.03;68.45;98239.06;5123836;28;20396;-79
2021/04/21 01:56:06;;;;;;;23.23;15.95;;;8.20;83.50;;;6.98;68.90;98246.78;5124549;28;20427;-79
2021/04/21 01:58:56;;;;;;;21.88;14.52;;;8.10;83.80;;;7.00;69.02;98240.28;5140889;27;20420;-79
2021/04/21 02:01:54;;;;;;;20.83;13.63;;;8.10;84.20;;;7.08;68.58;98239.25;5124727;28;20412;-79
2021/04/21 02:04:41;;;;;;;23.42;15.27;;;8.20;84.00;;;7.08;68.50;98241.06;5124944;28;20416;-79
2021/04/21 02:07:38;;;;;;;21.33;14.07;;;8.20;83.70;;;7.07;68.33;98236.84;5124503;28;20396;-80
2021/04/21 02:10:29;;;;;;;25.77;15.43;;;8.20;83.50;;;6.89;68.80;98235.69;5125013;28;20409;-79
2021/04/21 02:13:20;;;;;;;24.27;15.23;;;8.10;83.80;;;6.93;68.39;98243.94;5128210;28;20408;-79
2021/04/21 02:16:02;;;;;;;26.33;15.48;;;8.10;83.60;;;6.87;68.44;98239.50;5130123;28;20516;-79
2021/04/21 02:18:43;;;;;;;25.25;16.13;;;8.00;83.50;;;6.91;68.46;98238.91;5131847;28;20400;-78
2021/04/21 02:21:20;;;;;;;24.42;16.02;;;8.00;83.70;;;7.00;68.25;98244.75;5131875;28;20412;-79
2021/04/21 02:23:55;;;;;;;23.77;16.27;;;8.10;83.50;;;6.96;68.36;98248.81;5131853;28;20499;-80
2021/04/21 02:26:29;;;;;;;21.83;14.95;;;8.10;83.40;;;7.03;68.45;98244.34;5141619;27;20427;-79
2021/04/21 02:29:02;;;;;;;22.48;15.23;;;8.10;83.50;;;7.09;68.04;98243.50;5123068;28;20408;-79
2021/04/21 02:31:44;;;;;;;22.37;15.13;;;8.10;83.20;;;7.31;67.17;98244.84;5124955;28;20420;-79
2021/04/21 02:34:19;;;;;;;23.27;14.57;;;8.30;82.70;;;7.22;67.41;98245.28;5124640;28;20408;-79
2021/04/21 02:37:04;;;;;;;20.13;14.20;;;8.30;82.50;;;7.20;67.72;98249.97;5124778;28;20869;-79
2021/04/21 02:39:43;;;;;;;21.08;14.30;;;8.30;82.80;;;7.20;67.38;98252.59;5127389;28;20432;-79
2021/04/21 02:42:16;;;;;;;21.38;14.30;;;8.30;82.70;;;7.14;67.56;98256.06;5128347;28;20469;-79
2021/04/21 02:44:56;;;;;;;21.60;14.50;;;8.30;82.50;;;7.02;68.00;98244.53;5135256;28;20396;-79
2021/04/21 02:47:31;;;;;;;19.85;13.85;;;8.20;82.80;;;6.81;68.50;98253.50;5133837;28;20397;-79
2021/04/21 02:50:07;;;;;;;24.05;14.77;;;8.00;83.50;;;6.79;68.54;98253.69;5133104;28;20447;-79
2021/04/21 02:53:06;;;;;;;25.42;15.18;;;7.90;83.50;;;6.92;67.84;98252.84;5132619;28;20400;-79
2021/04/21 02:56:02;;;;;;;26.35;14.63;;;7.90;83.00;;;6.80;68.72;98247.44;5134849;28;20499;-79
2021/04/21 02:58:37;;;;;;;25.02;15.30;;;8.00;83.50;;;6.81;68.88;98245.59;5134901;28;20411;-79
2021/04/21 03:01:19;;;;;;;24.13;15.32;;;7.90;84.20;;;6.84;68.91;98247.84;5133827;28;20403;-79
2021/04/21 03:03:58;;;;;;;24.17;14.23;;;7.90;84.30;;;6.87;68.80;98245.59;5131820;28;20407;-79
2021/04/21 03:06:30;;;;;;;21.92;14.55;;;7.90;84.90;;;6.86;68.69;98245.78;5130509;28;20400;-79
2021/04/21 03:09:03;;;;;;;26.63;15.30;;;7.90;84.00;;;6.88;68.64;98243.78;5127294;28;20404;-79
2021/04/21 03:11:31;;;;;;;25.25;16.20;;;7.90;83.80;;;6.87;68.07;98242.97;5125659;28;20396;-79
2021/04/21 03:14:02;;;;;;;24.33;15.23;;;8.00;83.40;;;6.91;67.94;98243.38;5140156;27;20456;-79
2021/04/21 03:16:33;;;;;;;27.88;15.93;;;8.00;83.20;;;6.78;68.43;98246.81;5123357;28;20427;-79
2021/04/21 03:19:04;;;;;;;24.27;14.95;;;7.90;83.40;;;6.67;68.61;98238.75;5124106;28;20397;-79
2021/04/21 03:21:35;;;;;;;21.98;14.57;;;7.90;83.50;;;6.38;70.16;98245.25;5124855;28;20496;-79
2021/04/21 03:24:09;;;;;;;25.83;16.38;;;7.60;84.80;;;6.31;70.45;98233.94;5124683;28;20415;-79
2021/04/21 03:26:37;;;;;;;24.38;16.33;;;7.40;85.70;;;6.30;70.44;98245.47;5123922;28;20404;-79
2021/04/21 03:29:07;;;;;;;28.15;16.30;;;7.40;85.90;;;6.35;70.20;98240.41;5141432;27;20419;-79
2021/04/21 03:31:37;;;;;;;25.13;15.95;;;7.40;85.60;;;6.34;70.68;98239.59;5128000;28;20515;-79
2021/04/21 03:34:11;;;;;;;27.98;17.05;;;7.50;85.80;;;6.27;70.93;98236.16;5133038;28;20453;-79
2021/04/21 03:36:38;;;;;;;24.48;15.90;;;7.40;86.10;;;6.26;70.87;98236.34;5149261;27;20408;-79
2021/04/21 03:39:06;;;;;;;27.77;17.45;;;7.40;86.30;;;6.22;71.07;98236.78;5131655;28;20474;-80
2021/04/21 03:41:32;;;;;;;28.52;17.60;;;7.40;86.40;;;6.25;71.23;98232.91;5132901;28;20416;-79
2021/04/21 03:43:59;;;;;;;28.93;17.60;;;7.40;86.50;;;6.30;70.88;98230.50;5132874;28;20513;-79
2021/04/21 03:46:27;;;;;;;31.98;17.45;;;7.40;86.40;;;6.38;70.52;98229.50;5135034;28;20372;-80
2021/04/21 03:48:56;;;;;;;25.73;16.57;;;7.40;86.00;;;6.36;70.65;98224.44;5135909;28;20398;-78
2021/04/21 03:51:25;;;;;;;29.17;18.23;;;7.50;86.00;;;6.33;70.55;98221.38;5133642;28;20415;-80
2021/04/21 03:53:53;;;;;;;29.07;17.77;;;7.40;86.10;;;6.33;70.59;98229.28;5126035;28;20418;-80
2021/04/21 03:56:24;;;;;;;27.27;17.13;;;7.40;85.90;;;6.35;70.62;98224.63;5124913;28;20718;-79
2021/04/21 03:58:54;;;;;;;30.60;17.83;;;7.40;86.00;;;6.30;70.40;98224.44;5141088;27;20413;-80
2021/04/21 04:01:23;;;;;;;28.85;17.15;;;7.50;85.90;;;6.17;70.94;98227.84;5140365;27;20416;-77
2021/04/21 04:03:52;;;;;;;26.48;16.67;;;7.40;86.10;;;6.16;71.18;98236.78;5123261;28;20829;-80
2021/04/21 04:06:26;;;;;;;27.30;17.17;;;7.30;86.40;;;6.00;71.43;98224.03;5121535;28;20408;-80
2021/04/21 04:08:59;;;;;;;27.02;17.35;;;7.20;86.70;;;5.97;71.60;98222.59;5122012;28;20416;-80
2021/04/21 04:11:28;;;;;;;25.42;17.08;;;7.10;87.00;;;5.98;72.07;98231.28;5122285;28;20404;-79
2021/04/21 04:14:02;;;;;;;28.60;17.77;;;7.10;87.20;;;5.87;72.11;98227.41;5121489;28;20404;-80
2021/04/21 04:16:31;;;;;;;29.42;17.88;;;7.10;87.40;;;5.89;72.28;98221.97;5121836;27;20477;-80
2021/04/21 04:18:59;;;;;;;26.80;18.02;;;7.00;87.70;;;5.78;72.51;98223.38;5120802;28;20427;-80
2021/04/21 04:21:33;;;;;;;30.30;18.20;;;7.00;87.80;;;5.76;72.67;98226.19;5119779;28;20411;-80
2021/04/21 04:24:01;;;;;;;28.92;17.77;;;6.90;88.20;;;5.74;72.59;98225.56;5121644;28;20810;-80
2021/04/21 04:26:28;;;;;;;29.23;18.03;;;6.90;88.10;;;5.79;72.40;98223.13;5120670;28;20440;-80
2021/04/21 04:28:55;;;;;;;31.73;18.30;;;6.90;88.10;;;5.91;72.22;98226.03;5121495;28;20821;-80
2021/04/21 04:31:22;;;;;;;28.23;18.77;;;7.00;88.00;;;5.95;71.97;98232.50;5120201;28;20459;-78
2021/04/21 04:33:50;;;;;;;27.30;18.27;;;7.10;87.60;;;6.03;71.53;98234.94;5118544;28;20415;-78
2021/04/21 04:36:17;;;;;;;27.02;18.70;;;7.10;87.40;;;6.09;71.44;98238.59;5119218;28;20507;-78
2021/04/21 04:38:44;;;;;;;27.13;18.02;;;7.20;88.00;;;6.06;71.57;98239.78;5119472;28;20411;-78
2021/04/21 04:41:11;;;;;;;30.25;18.48;;;7.20;87.00;;;6.04;71.86;98241.81;5120006;28;20451;-80
2021/04/21 04:43:40;;;;;;;28.83;18.60;;;7.20;87.30;;;6.10;71.29;98235.75;5121895;28;20414;-80
2021/04/21 04:46:08;;;;;;;32.38;18.15;;;7.20;86.90;;;6.10;71.33;98246.25;5121407;28;20404;-80
2021/04/21 04:48:43;;;;;;;27.40;17.98;;;7.20;87.00;;;6.10;71.41;98237.56;5121537;28;20422;-80
2021/04/21 04:51:11;;;;;;;27.33;17.90;;;7.20;87.00;;;6.04;71.47;98244.44;5122277;28;20511;-78
2021/04/21 04:53:40;;;;;;;28.45;18.88;;;7.20;86.90;;;6.02;71.49;98245.63;5127031;28;20427;-80
2021/04/21 04:56:08;;;;;;;25.67;16.88;;;7.20;87.10;;;5.97;71.63;98242.81;5126938;28;20599;-79
2021/04/21 04:58:35;;;;;;;30.40;18.10;;;7.20;87.20;;;6.12;71.23;98251.31;5132396;28;20424;-81
2021/04/21 05:01:05;;;;;;;30.95;19.23;;;7.20;87.20;;;6.25;70.65;98261.00;5130220;28;20412;-82
2021/04/21 05:03:38;;;;;;;30.80;19.08;;;7.30;86.60;;;6.33;70.35;98261.63;5128781;28;20423;-79
2021/04/21 05:06:08;;;;;;;31.10;18.57;;;7.40;86.30;;;6.52;69.67;98266.09;5120571;28;20485;-84
2021/04/21 05:08:45;;;;;;;31.52;18.92;;;7.50;85.60;;;6.37;69.75;98268.13;5123419;28;20457;-83
2021/04/21 05:11:14;;;;;;;34.10;19.05;;;7.60;85.20;;;6.32;69.79;98267.91;5120716;28;20453;-82
2021/04/21 05:13:45;;;;;;;32.15;19.20;;;7.50;85.20;;;6.33;69.92;98261.63;5122006;28;20396;-79
2021/04/21 05:17:16;;;;;;;31.77;19.10;;;7.40;85.50;;;6.46;69.52;98269.53;5121640;28;20682;-81
2021/04/21 05:20:33;;;;;;;32.80;19.53;;;7.50;85.10;;;6.45;68.88;98270.53;5047063;28;20821;-81
2021/04/21 05:23:39;;;;;;;33.93;19.53;;;7.60;84.60;;;6.57;68.83;98276.00;5100539;28;20572;-80
2021/04/21 05:27:12;;;;;;;34.93;19.03;;;7.60;84.40;;;6.60;68.16;98279.03;5124101;28;20460;-79
2021/04/21 05:30:15;;;;;;;34.47;20.70;;;7.70;83.70;;;6.69;68.01;98274.34;5122205;28;20509;-79
2021/04/21 05:33:40;;;;;;;36.30;21.33;;;7.80;83.40;;;6.79;67.54;98280.00;5117865;28;20443;-80
2021/04/21 05:37:08;;;;;;;37.85;20.25;;;7.80;83.10;;;6.84;67.38;98277.56;5120503;28;20413;-80
2021/04/21 05:40:31;;;;;;;31.52;19.75;;;7.90;82.80;;;6.90;67.33;98278.59;5122567;28;20444;-81
2021/04/21 05:43:56;;;;;;;32.92;20.23;;;8.00;82.40;;;6.98;67.13;98283.66;5121403;28;20404;-81
2021/04/21 05:47:21;;;;;;;33.95;20.42;;;8.00;82.40;;;7.12;66.81;98285.22;5137067;28;20735;-81
2021/04/21 05:50:28;;;;;;;54.90;34.47;;;8.10;82.40;;;7.22;66.75;98277.69;5123582;28;20404;-80
2021/04/21 05:53:50;;;;;;;50.38;26.40;;;8.30;82.10;;;7.26;65.97;98284.16;5123475;28;20698;-80
2021/04/21 05:57:12;;;;;;;37.80;22.33;;;8.30;81.30;;;7.33;65.73;98287.59;5121285;28;20416;-80
2021/04/21 06:00:38;;;;;;;39.75;21.95;;;8.40;81.00;;;7.47;65.49;98295.44;5121366;28;20427;-80
2021/04/21 06:03:07;;;;;;;41.53;22.45;;;8.50;80.80;;;7.57;65.34;98291.34;5125599;28;20643;-80
2021/04/21 06:05:33;;;;;;;37.25;21.23;;;8.60;81.20;;;7.70;64.77;98287.84;5125924;28;20416;-80
2021/04/21 06:08:10;;;;;;;36.85;21.42;;;8.70;79.90;;;7.72;64.76;98283.16;5126230;28;20461;-81
2021/04/21 06:10:37;;;;;;;37.80;21.30;;;8.70;79.60;;;7.86;64.23;98295.25;5127590;28;20411;-81
2021/04/21 06:13:03;;;;;;;33.55;20.77;;;8.90;79.30;;;7.99;63.70;98291.72;5125511;28;20412;-80
2021/04/21 06:15:31;;;;;;;37.13;21.45;;;9.00;78.70;;;8.06;63.41;98295.94;5126104;28;20502;-80
2021/04/21 06:17:59;;;;;;;40.50;22.10;;;9.10;78.00;;;8.01;63.32;98294.97;5125292;28;20408;-80
2021/04/21 06:20:33;;;;;;;34.28;22.23;;;9.10;77.70;;;8.00;63.06;98298.63;5125428;28;20422;-79
2021/04/21 06:23:06;;;;;;;42.90;23.90;;;9.00;78.00;;;7.97;63.39;98301.69;5126025;28;20418;-81
2021/04/21 06:25:47;;;;;;;40.08;22.98;;;9.00;78.10;;;7.95;63.44;98301.91;5144285;27;20467;-79
2021/04/21 06:28:30;;;;;;;39.50;23.08;;;9.00;78.20;;;8.03;63.55;98303.47;5128711;28;20521;-80
2021/04/21 06:31:06;;;;;;;45.17;22.92;;;9.10;78.40;;;8.11;63.22;98301.41;5141232;27;20426;-80
2021/04/21 06:33:33;;;;;;;41.03;22.50;;;9.20;78.10;;;8.16;63.10;98306.03;5125967;28;20503;-80
2021/04/21 06:36:02;;;;;;;42.42;23.20;;;9.20;77.90;;;8.24;62.93;98300.50;5126322;28;20717;-80
2021/04/21 06:38:29;;;;;;;43.50;23.35;;;9.30;77.80;;;8.39;62.90;98302.88;5148396;27;20488;-79
2021/04/21 06:40:56;;;;;;;48.50;23.55;;;9.40;77.70;;;8.49;62.54;98303.19;5148351;27;20499;-79
2021/04/21 06:43:25;;;;;;;40.55;23.02;;;9.50;78.00;;;8.58;62.32;98303.72;5133338;28;20402;-80
2021/04/21 06:45:53;;;;;;;46.75;23.70;;;9.60;77.00;;;8.70;62.27;98308.09;5145640;27;20457;-80
2021/04/21 06:48:28;;;;;;;41.25;22.70;;;9.60;76.70;;;8.77;61.72;98306.22;5129814;28;20503;-80
2021/04/21 06:50:55;;;;;;;45.45;23.92;;;9.80;76.30;;;8.92;61.56;98313.78;5128875;28;20401;-80
2021/04/21 06:53:29;;;;;;;40.27;23.07;;;9.90;76.30;;;8.96;61.33;98309.69;5130904;28;20812;-79
2021/04/21 06:55:56;;;;;;;47.58;23.75;;;10.00;75.70;;;9.07;61.09;98302.88;5132877;28;20456;-79
2021/04/21 06:58:23;;;;;;;37.20;23.03;;;10.00;75.40;;;9.12;60.68;98308.31;5131823;28;20487;-78
2021/04/21 07:00:49;;;;;;;43.10;23.80;;;10.10;75.00;;;9.18;60.57;98307.41;5129836;28;20415;-79
2021/04/21 07:03:18;;;;;;;42.55;23.85;;;10.10;74.90;;;9.27;60.26;98300.81;5129160;28;20411;-79
2021/04/21 07:05:45;;;;;;;39.10;22.85;;;10.20;74.80;;;9.28;60.18;98308.53;5133886;28;21106;-79
2021/04/21 07:08:15;;;;;;;41.75;23.20;;;10.30;74.50;;;9.40;60.16;98313.09;5134326;28;20387;-79
2021/04/21 07:10:45;;;;;;;51.15;25.63;;;10.30;74.40;;;9.53;59.87;98311.13;5133409;28;20430;-79
2021/04/21 07:13:19;;;;;;;40.17;24.38;;;10.50;74.30;;;9.64;59.60;98307.72;5132195;28;20424;-79
2021/04/21 07:15:47;;;;;;;46.15;23.88;;;10.60;73.80;;;9.77;59.38;98308.59;5133547;28;20537;-79
2021/04/21 07:18:17;;;;;;;42.50;24.17;;;10.70;73.60;;;9.87;59.10;98312.31;5132786;28;20470;-79
2021/04/21 07:20:43;;;;;;;45.17;24.65;;;10.80;73.20;;;9.95;58.53;98305.91;5133303;28;20396;-79
2021/04/21 07:23:11;;;;;;;48.83;25.85;;;10.90;72.80;;;10.06;58.58;98313.88;5132143;28;20407;-80
2021/04/21 07:25:39;;;;;;;44.70;23.25;;;11.00;72.70;;;10.17;58.21;98311.50;5125290;28;20668;-82
2021/04/21 07:28:08;;;;;;;52.13;25.25;;;11.10;72.20;;;10.20;58.16;98316.38;5138027;27;20458;-78
2021/04/21 07:30:34;;;;;;;43.00;24.63;;;11.10;71.90;;;10.31;57.85;98315.59;5122946;28;20437;-79
2021/04/21 07:33:01;;;;;;;43.03;24.75;;;11.20;71.70;;;10.39;57.60;98317.91;5124637;28;20407;-79
2021/04/21 07:35:29;;;;;;;44.75;24.80;;;11.30;71.60;;;10.38;57.53;98311.00;5140211;27;20496;-79
2021/04/21 07:37:59;;;;;;;46.95;25.25;;;11.30;71.00;;;10.38;57.53;98306.50;5124301;28;20411;-79
2021/04/21 07:40:36;;;;;;;43.22;25.75;;;11.40;70.80;;;10.44;57.46;98304.81;5123375;28;20930;-78
2021/04/21 07:43:14;;;;;;;43.33;24.05;;;11.40;71.10;;;10.49;57.36;98302.28;5125860;28;20499;-79
2021/04/21 07:45:54;;;;;;;45.88;26.50;;;11.40;70.90;;;10.68;56.98;98306.44;5131004;28;20493;-80
2021/04/21 07:48:43;;;;;;;46.45;26.00;;;11.60;70.80;;;10.82;56.66;98304.41;5132737;28;20404;-80
2021/04/21 07:51:40;;;;;;;46.65;24.90;;;11.70;70.50;;;11.00;56.49;98309.56;5133259;28;20454;-80
2021/04/21 07:54:28;;;;;;;45.28;26.42;;;11.90;70.10;;;11.10;55.75;98309.00;5124924;28;20434;-79
2021/04/21 07:57:00;;;;;;;46.42;25.17;;;12.00;69.20;;;11.20;55.34;98310.03;5122912;28;20796;-79
2021/04/21 07:59:30;;;;;;;44.80;24.58;;;12.10;68.80;;;11.31;55.21;98315.56;5123746;28;20547;-80
2021/04/21 08:02:08;;;;;;;45.38;24.95;;;12.30;68.50;;;11.32;54.99;98317.97;5123951;28;20434;-80
2021/04/21 08:04:55;;;;;;;51.20;25.85;;;12.30;68.00;;;11.41;54.44;98313.13;5121997;28;20435;-79
2021/04/21 08:07:35;;;;;;;42.72;24.20;;;12.40;67.60;;;11.53;54.53;98313.91;5117713;28;20404;-80
2021/04/21 08:10:07;;;;;;;39.87;24.73;;;12.40;67.50;;;11.59;54.14;98313.75;5121619;28;20404;-80
2021/04/21 08:12:37;;;;;;;41.40;24.40;;;12.50;66.90;;;11.74;53.99;98315.94;5121829;28;20400;-80
2021/04/21 08:15:08;;;;;;;41.00;24.00;;;12.60;67.50;;;11.75;53.43;98317.56;5123214;28;20667;-80
2021/04/21 08:17:52;;;;;;;43.07;23.70;;;12.70;66.20;;;11.80;53.49;98315.00;5122267;28;20467;-80
2021/04/21 08:20:32;;;;;;;47.50;24.80;;;12.70;66.10;;;11.94;53.18;98319.00;5122137;28;20419;-79
2021/04/21 08:23:01;;;;;;;43.10;23.10;;;12.90;66.10;;;12.09;53.03;98318.47;5148618;27;20412;-80
2021/04/21 08:25:29;;;;;;;39.10;23.85;;;12.90;66.10;;;12.22;52.50;98314.72;5151016;27;20506;-80
2021/04/21 08:27:56;;;;;;;46.28;23.88;;;13.10;65.30;;;12.35;52.38;98311.75;5135014;28;20416;-80
2021/04/21 08:30:25;;;;;;;38.15;23.38;;;13.20;65.10;;;12.47;50.92;98320.47;5133451;28;20416;-79
2021/04/21 08:32:52;;;;;;;39.17;22.02;;;13.40;63.10;;;12.54;51.49;98322.97;5124854;28;20678;-79
2021/04/21 08:35:18;;;;;;;36.40;21.88;;;13.50;63.50;;;12.59;50.81;98318.53;5123412;28;20427;-80
2021/04/21 08:37:45;;;;;;;37.20;23.58;;;13.50;62.80;;;12.67;50.57;98323.47;5124613;28;20392;-79
2021/04/21 08:40:15;;;;;;;37.53;23.08;;;13.60;62.70;;;12.77;50.21;98309.53;5124567;28;20423;-80
2021/04/21 08:42:42;;;;;;;41.03;22.25;;;13.70;62.20;;;12.84;49.38;98318.16;5130254;28;20454;-78
2021/04/21 08:45:10;;;;;;;34.50;20.63;;;13.70;61.20;;;12.87;48.57;98317.66;5134313;28;20400;-78
2021/04/21 08:47:41;;;;;;;34.95;21.83;;;13.80;60.00;;;12.97;48.23;98322.31;5134606;28;20418;-78
2021/04/21 08:50:09;;;;;;;33.20;21.00;;;13.90;59.70;;;13.06;48.00;98315.56;5134961;28;20400;-79
2021/04/21 08:52:45;;;;;;;28.35;18.70;;;14.00;59.60;;;13.08;46.45;98319.56;5128020;28;20400;-79
2021/04/21 08:55:16;;;;;;;33.75;20.17;;;14.00;57.80;;;13.21;47.03;98313.16;5124825;28;20423;-78
2021/04/21 08:57:44;;;;;;;35.53;20.48;;;14.10;58.30;;;13.24;47.45;98311.84;5125032;28;20567;-80
2021/04/21 09:00:14;;;;;;;33.30;19.92;;;14.10;58.60;;;13.55;46.65;98317.31;5124110;28;20484;-79
2021/04/21 09:02:41;;;;;;;40.63;21.00;;;14.30;58.50;;;13.62;47.08;98316.31;5124205;28;20534;-78
2021/04/21 09:05:12;;;;;;;35.35;20.17;;;14.50;58.60;;;13.66;45.37;98314.78;5114935;28;20427;-79
2021/04/21 09:07:41;;;;;;;43.67;20.50;;;14.50;56.50;;;13.73;47.11;98313.56;5124647;28;20513;-78
2021/04/21 09:10:09;;;;;;;33.53;21.17;;;14.60;58.10;;;13.79;47.09;98322.38;5124595;28;20679;-79
2021/04/21 09:12:36;;;;;;;31.92;20.13;;;14.70;58.50;;;13.84;47.39;98320.59;5106302;28;20506;-78
2021/04/21 09:15:06;;;;;;;34.92;21.30;;;14.70;58.70;;;13.86;47.48;98323.00;5140460;28;20593;-79
2021/04/21 09:17:36;;;;;;;34.97;20.70;;;14.70;58.60;;;13.90;47.15;98326.78;5141394;28;20421;-81
2021/04/21 09:20:10;;;;;;;24.55;17.13;;;14.80;58.30;;;13.97;45.05;98315.94;5143498;27;20563;-80
2021/04/21 09:23:00;;;;;;;25.20;15.43;;;14.80;56.10;;;14.01;43.08;98312.53;5144532;28;20437;-81
2021/04/21 09:25:34;;;;;;;28.67;16.27;;;14.90;54.30;;;14.12;43.02;98318.78;5147676;27;20445;-81
2021/04/21 09:28:01;;;;;;;28.65;16.52;;;15.00;53.80;;;14.36;42.46;98312.06;5149115;28;20426;-78
2021/04/21 09:30:28;;;;;;;32.88;18.40;;;15.10;53.60;;;14.24;43.29;98309.56;5150933;27;20413;-77
2021/04/21 09:32:57;;;;;;;28.42;17.25;;;15.10;53.80;;;14.28;42.95;98315.97;5149679;28;20391;-79
2021/04/21 09:35:27;;;;;;;23.00;14.15;;;15.10;53.80;;;14.37;40.70;98311.00;5146861;28;20819;-80
2021/04/21 09:37:55;;;;;;;28.63;16.98;;;15.20;51.60;;;14.46;42.04;98311.38;5147994;27;20410;-81
2021/04/21 09:40:35;;;;;;;23.25;15.30;;;15.30;52.50;;;14.52;41.50;98307.72;5148751;27;20676;-80
2021/04/21 09:43:02;;;;;;;30.35;15.98;;;15.40;52.10;;;14.61;41.06;98304.34;5163269;27;20661;-79
2021/04/21 09:45:42;;;;;;;25.27;16.67;;;15.40;51.50;;;14.47;41.12;98303.16;5149405;27;20422;-79
2021/04/21 09:48:13;;;;;;;30.35;17.20;;;15.40;51.00;;;14.59;41.23;98305.63;5149931;27;20445;-80
2021/04/21 09:50:43;;;;;;;22.55;15.48;;;15.40;51.90;;;14.65;40.93;98296.66;5147809;27;20393;-80
2021/04/21 09:53:25;;;;;;;24.63;15.02;;;15.50;51.40;;;14.86;40.22;98302.94;5152530;27;20402;-79
2021/04/21 09:56:00;;;;;;;23.07;15.27;;;15.70;50.80;;;14.74;39.87;98297.75;5134024;27;20524;-78
2021/04/21 09:58:29;;;;;;;22.98;14.98;;;15.70;49.90;;;14.62;40.05;98292.63;5129005;28;20404;-79
2021/04/21 10:00:58;;;;;;;25.92;14.80;;;15.50;50.10;;;14.78;39.85;98293.53;5113300;28;20428;-79
2021/04/21 10:03:26;;;;;;;23.83;14.18;;;15.60;50.30;;;14.88;39.32;98284.81;5127551;28;20423;-80
2021/04/21 10:05:53;;;;;;;25.73;14.70;;;15.70;49.30;;;14.89;38.76;98289.06;5128845;28;20424;-79
2021/04/21 10:08:22;;;;;;;19.42;13.43;;;15.80;48.60;;;14.87;38.27;98288.53;5130481;28;20406;-79
2021/04/21 10:11:00;;;;;;;23.23;13.57;;;15.70;47.90;;;15.03;37.84;98285.72;5112969;28;20432;-79
2021/04/21 10:13:39;;;;;;;22.25;14.73;;;15.90;48.00;;;14.95;37.59;98286.22;5132181;28;20408;-79
2021/04/21 10:16:07;;;;;;;23.30;13.73;;;15.90;47.20;;;15.07;37.75;98280.66;5132868;28;20412;-81
2021/04/21 10:18:33;;;;;;;22.58;11.88;;;15.90;47.70;;;15.10;36.73;98294.31;5129955;28;20404;-80
2021/04/21 10:21:01;;;;;;;19.25;12.90;;;16.00;46.50;;;15.06;36.51;98287.84;5112757;28;20416;-80
2021/04/21 10:23:29;;;;;;;20.05;11.38;;;15.90;45.90;;;15.40;34.92;98284.84;5111339;28;20412;-80
2021/04/21 10:26:01;;;;;;;14.20;10.50;;;16.10;44.50;;;15.41;34.55;98275.78;5130773;28;20423;-79
2021/04/21 10:28:28;;;;;;;17.17;10.55;;;16.20;43.60;;;15.45;35.06;98280.34;5131469;28;20396;-79
2021/04/21 10:30:55;;;;;;;20.20;12.35;;;16.30;44.00;;;15.43;35.33;98278.97;5132222;28;20408;-79
2021/04/21 10:33:23;;;;;;;18.52;11.63;;;16.30;44.40;;;15.32;35.97;98275.47;5129935;28;20415;-78
2021/04/21 10:35:49;;;;;;;18.23;12.00;;;16.20;45.00;;;15.37;36.43;98269.34;5132163;28;20420;-79
2021/04/21 10:38:21;;;;;;;20.65;12.90;;;16.20;45.40;;;15.38;35.84;98278.97;5130278;28;20403;-79
2021/04/21 10:40:47;;;;;;;22.23;13.43;;;16.30;44.90;;;15.37;35.56;98272.81;5133099;28;20415;-79
2021/04/21 10:43:14;;;;;;;23.23;12.07;;;16.20;44.70;;;15.56;35.07;98275.09;5132026;28;20428;-80
2021/04/21 10:45:48;;;;;;;25.38;12.07;;;16.40;44.10;;;15.64;35.30;98262.00;5132522;28;20418;-79
2021/04/21 10:48:39;;;;;;;25.27;12.43;;;16.50;44.50;;;16.02;35.08;98266.13;5130458;28;20409;-79